LGIOLGKR

Guest
Details From LGIO - Ioannina
To LGKR - Ioannis Kapodistrias Intl
Flight Number -
Tags Routegen Generated
Created
Modified
Stats Distance 49 nm / 92 km
Max Altitude 100 ft / 30 m
Waypoints 5
Social Downloads 17
Likes 0
Share

Download

Looking for another format? Having issues loading an existing format? Contact us
Advertisement - Login to hide

Notes

Departing runway 32 LGIO. Arriving runway 16 LGKR.

Route

LGIO +39.76_+020.76 +39.64_+020.34 +39.52_+019.93 LGKR

ID Type Via Altitude (ft/m) Position (lat/lon) Dist (leg/tot) Name
O LGIO APT - 0 / 0 39.70500 / 20.81389 - / 0 nm
+39.76_+020.76 LATLON - 100 / 30 39.76200 / 20.75590 4 / 4 nm
+39.64_+020.34 LATLON - 100 / 30 39.64114 / 20.34436 20 / 24 nm
+39.52_+019.93 LATLON - 100 / 30 39.52028 / 19.93281 20 / 45 nm
O LGKR APT - 0 / 0 39.59128 / 19.91461 4 / 49 nm

Altitude Profile

Advertisement - Login to hide

LGIO

Details ICAO LGIO (IOA)
Name Ioannina King Pyrros Airport
Region Greece
Timezone Europe/Athens (UTC+3.0)
Stats Elevation 1,558 ft / 475 m (AMSL)
Location 39.697300° 20.821900°
Runways 1
Magnetic Variation 4.878° E

METAR

LGIO 180850Z 12005KT CAVOK 24/17 Q1017

Decode

TAF

Not found

Departure Runways

ID Width Length Bearing (true/mag) Surface Threshold Overrun Markings Lighting
14 148 ft / 45 m 7,866 ft / 2,397 m 141.77° / 136.89° ASPHALT 0 ft / 0 m 0 ft / 0 m PREC-APP CENTERLINE EDGE THRESHOLD
32 148 ft / 45 m 7,866 ft / 2,397 m 321.78° / 316.90° ASPHALT 394 ft / 120 m 0 ft / 0 m PREC-APP CENTERLINE EDGE THRESHOLD

LGKR

Details ICAO LGKR (CFU)
Name Ioannis Kapodistrias Intl
Region Greece
Timezone Europe/Athens (UTC+3.0)
Stats Elevation 0 ft / 0 m (AMSL)
Location 39.602300° 19.912000°
Runways 1
Magnetic Variation 4.738° E

METAR

LGKR 180850Z 06005KT CAVOK 24/18 Q1015 NOSIG

Decode

TAF

TAF LGKR 180500Z 1806/1906 VRB05KT 8000 FEW020 SCT080 TEMPO 1806/1824 FEW020 BKN080 PROB30 TEMPO 1810/1824 5000 RA FEW020 BKN030

Decode

Destination Runways

ID Width Length Bearing (true/mag) Surface Threshold Overrun Markings Lighting
16 148 ft / 45 m 7,604 ft / 2,318 m 168.78° / 164.04° ASPHALT 1,342 ft / 409 m 0 ft / 0 m PREC-APP EDGE THRESHOLD ALSF-I
34 148 ft / 45 m 7,604 ft / 2,318 m 348.79° / 344.05° ASPHALT 0 ft / 0 m 0 ft / 0 m PREC-APP EDGE THRESHOLD SALS REIL-OMNI

Popular Alternatives